Search for airport 
image banner adimage banner adimage banner ad
image banner ad

CL36 - Sharp Mem Hospital

Located in San Diego, United States

ICAO - CL36, IATA -

Data provided by Airmate  

General information

Coordinates: N32°47'58" W117°9'12"
Elevation is 460 feet MSL.
 
View others Airports in California

Operational data

Special qualification required
Current time UTC:
Current local time:
Weather at : KMYF - Montgomery-Gibbs Executive ( 2 km )
METAR: KMYF 211153Z AUTO 11003KT 10SM OVC009 17/14 A2994 RMK AO2 SLP136 T01670139 10172 20167 53005
View NOTAMs / SUP AIP / TFR affecting this airport [VIEW]
Communications frequencies: [VIEW]

Runways:

Airport contact information

Address: San Diego United States

Satellite view of CL36